createdAt,value
2024-02-03T00:00:35.322Z,100528.63
2024-02-03T00:03:23.640Z,100525.89
2024-02-03T00:05:51.920Z,100531.48
2024-02-03T00:08:20.447Z,100528.80
2024-02-03T00:10:48.691Z,100517.39
2024-02-03T00:13:16.795Z,100516.94
2024-02-03T00:15:45.030Z,100511.95
2024-02-03T00:18:13.413Z,100511.63
2024-02-03T00:20:41.638Z,100506.11
2024-02-03T00:23:09.710Z,100506.41
2024-02-03T00:25:37.999Z,100494.25
2024-02-03T00:28:06.450Z,100504.50
2024-02-03T00:30:34.617Z,100509.38
2024-02-03T00:33:03.164Z,100517.91
2024-02-03T00:35:31.289Z,100521.08
2024-02-03T00:37:59.364Z,100512.10
2024-02-03T00:40:27.543Z,100522.31
2024-02-03T00:42:56.919Z,100527.77
2024-02-03T00:45:25.149Z,100537.50
2024-02-03T00:47:53.335Z,100535.40
2024-02-03T00:50:21.544Z,100531.55
2024-02-03T00:52:49.837Z,100539.75
2024-02-03T00:55:18.553Z,100537.45
2024-02-03T00:57:46.772Z,100539.50
2024-02-03T01:00:15.885Z,100548.36
2024-02-03T01:02:44.320Z,100546.94
2024-02-03T01:05:12.885Z,100545.05
2024-02-03T01:07:41.268Z,100544.92
2024-02-03T01:10:09.774Z,100545.96
2024-02-03T01:12:38.033Z,100537.87
2024-02-03T01:15:06.586Z,100543.86
2024-02-03T01:17:34.798Z,100541.65
2024-02-03T01:20:03.640Z,100544.22
2024-02-03T01:22:31.777Z,100541.89
2024-02-03T01:25:00.301Z,100548.59
2024-02-03T01:27:28.822Z,100551.94
2024-02-03T01:29:57.593Z,100552.36
2024-02-03T01:32:25.725Z,100546.86
2024-02-03T01:34:55.310Z,100538.69
2024-02-03T01:37:23.760Z,100536.38
2024-02-03T01:39:51.937Z,100538.23
2024-02-03T01:42:20.334Z,100542.09
2024-02-03T01:44:48.449Z,100548.98
2024-02-03T01:47:18.031Z,100543.59
2024-02-03T01:49:46.705Z,100551.95
2024-02-03T01:52:16.945Z,100550.41
2024-02-03T01:54:46.552Z,100538.42
2024-02-03T01:57:16.116Z,100546.52
2024-02-03T01:59:44.587Z,100544.89
2024-02-03T02:02:13.727Z,100529.10
2024-02-03T02:04:41.944Z,100539.59
2024-02-03T02:07:09.991Z,100540.16
2024-02-03T02:09:38.078Z,100539.94
2024-02-03T02:12:06.397Z,100534.17
2024-02-03T02:14:34.452Z,100536.64
2024-02-03T02:17:02.471Z,100548.66
2024-02-03T02:19:33.653Z,100559.54
2024-02-03T02:22:01.879Z,100556.43
2024-02-03T02:24:29.964Z,100546.53
2024-02-03T02:26:58.021Z,100551.09
2024-02-03T02:29:26.169Z,100556.80
2024-02-03T02:31:54.295Z,100548.12
2024-02-03T02:34:22.812Z,100549.54
2024-02-03T02:36:51.059Z,100549.13
2024-02-03T02:39:20.549Z,100546.00
2024-02-03T02:41:48.736Z,100542.85
2024-02-03T02:44:16.838Z,100542.71
2024-02-03T02:46:44.862Z,100538.95
2024-02-03T02:49:13.500Z,100533.16
2024-02-03T02:51:41.752Z,100539.85
2024-02-03T02:54:09.998Z,100546.87
2024-02-03T02:56:38.277Z,100552.73
2024-02-03T02:59:07.305Z,100548.79
2024-02-03T03:01:35.373Z,100560.21
2024-02-03T03:04:04.189Z,100547.45
2024-02-03T03:06:32.546Z,100548.48
2024-02-03T03:09:00.910Z,100543.23
2024-02-03T03:11:29.100Z,100538.16
2024-02-03T03:13:57.790Z,100543.15
2024-02-03T03:16:25.957Z,100550.02
2024-02-03T03:18:54.308Z,100553.08
2024-02-03T03:21:22.530Z,100555.96
2024-02-03T03:23:50.963Z,100547.71
2024-02-03T03:26:18.993Z,100548.38
2024-02-03T03:28:47.165Z,100550.63
2024-02-03T03:31:15.340Z,100539.39
2024-02-03T03:33:43.480Z,100557.21
2024-02-03T03:36:12.396Z,100551.67
2024-02-03T03:38:44.099Z,100556.55
2024-02-03T03:41:12.858Z,100555.40
2024-02-03T03:43:40.911Z,100555.14
2024-02-03T03:46:09.569Z,100559.19
2024-02-03T03:48:38.193Z,100566.55
2024-02-03T03:51:06.368Z,100562.36
2024-02-03T03:53:35.193Z,100560.52
2024-02-03T03:56:04.401Z,100567.84
2024-02-03T03:58:32.660Z,100568.24
2024-02-03T04:01:01.263Z,100567.42
2024-02-03T04:03:29.818Z,100567.11
2024-02-03T04:05:58.145Z,100572.86
2024-02-03T04:08:26.392Z,100567.45
2024-02-03T04:10:54.604Z,100570.43
2024-02-03T04:13:22.637Z,100559.61
2024-02-03T04:15:50.975Z,100561.40
2024-02-03T04:18:19.290Z,100537.72
2024-02-03T04:20:47.583Z,100535.23
2024-02-03T04:23:15.675Z,100532.80
2024-02-03T04:25:43.964Z,100527.94
2024-02-03T04:28:12.063Z,100529.01
2024-02-03T04:30:40.278Z,100532.50
2024-02-03T04:33:08.589Z,100538.09
2024-02-03T04:35:37.332Z,100549.60
2024-02-03T04:38:05.658Z,100548.02
2024-02-03T04:40:34.073Z,100542.16
2024-02-03T04:43:02.943Z,100533.14
2024-02-03T04:45:31.067Z,100529.10
2024-02-03T04:47:59.331Z,100539.16
2024-02-03T04:50:29.209Z,100538.48
2024-02-03T04:52:57.291Z,100535.94
2024-02-03T04:55:25.390Z,100535.33
2024-02-03T04:57:53.541Z,100549.89
2024-02-03T05:00:21.679Z,100546.23
2024-02-03T05:02:49.817Z,100541.36
2024-02-03T05:05:17.992Z,100531.13
2024-02-03T05:07:47.741Z,100520.73
2024-02-03T05:10:16.069Z,100519.31
2024-02-03T05:12:44.209Z,100521.42
2024-02-03T05:15:12.324Z,100516.10
2024-02-03T05:17:40.705Z,100513.98
2024-02-03T05:20:12.369Z,100513.05
2024-02-03T05:22:41.536Z,100506.42
2024-02-03T05:25:12.213Z,100508.05
2024-02-03T05:27:40.514Z,100505.41
2024-02-03T05:30:09.760Z,100526.38
2024-02-03T05:32:38.283Z,100522.80
2024-02-03T05:35:06.616Z,100522.56
2024-02-03T05:37:37.022Z,100531.95
2024-02-03T05:40:05.896Z,100527.96
2024-02-03T05:42:34.279Z,100525.59
2024-02-03T05:45:02.446Z,100527.17
2024-02-03T05:47:30.572Z,100533.60
2024-02-03T05:49:58.726Z,100525.86
2024-02-03T05:52:27.007Z,100536.91
2024-02-03T05:54:55.323Z,100535.79
2024-02-03T05:57:23.628Z,100538.05
2024-02-03T05:59:52.369Z,100547.84
2024-02-03T06:02:20.610Z,100554.52
2024-02-03T06:04:49.147Z,100546.01
2024-02-03T06:07:18.379Z,100558.35
2024-02-03T06:09:47.198Z,100545.45
2024-02-03T06:12:15.526Z,100553.20
2024-02-03T06:14:45.492Z,100556.91
2024-02-03T06:17:14.405Z,100558.52
2024-02-03T06:19:44.378Z,100566.31
2024-02-03T06:22:13.350Z,100570.14
2024-02-03T06:24:42.923Z,100570.77
2024-02-03T06:27:11.562Z,100577.89
2024-02-03T06:29:39.867Z,100571.48
2024-02-03T06:32:09.441Z,100574.38
2024-02-03T06:34:38.256Z,100571.02
2024-02-03T06:37:06.423Z,100574.26
2024-02-03T06:39:34.752Z,100568.02
2024-02-03T06:42:03.321Z,100566.25
2024-02-03T06:44:31.331Z,100564.88
2024-02-03T06:46:59.579Z,100569.39
2024-02-03T06:49:27.993Z,100571.05
2024-02-03T06:51:57.380Z,100566.09
2024-02-03T06:54:25.598Z,100566.20
2024-02-03T06:56:53.733Z,100567.70
2024-02-03T06:59:21.914Z,100581.55
2024-02-03T07:01:51.714Z,100581.66
2024-02-03T07:04:20.096Z,100579.03
2024-02-03T07:06:48.451Z,100589.11
2024-02-03T07:09:16.819Z,100596.39
2024-02-03T07:11:56.586Z,100609.10
2024-02-03T07:14:31.652Z,100611.02
2024-02-03T07:16:59.755Z,100615.77
2024-02-03T07:19:29.207Z,100618.73
2024-02-03T07:21:57.434Z,100619.88
2024-02-03T07:24:25.538Z,100611.27
2024-02-03T07:26:53.614Z,100623.53
2024-02-03T07:29:21.787Z,100621.21
2024-02-03T07:31:49.982Z,100622.15
2024-02-03T07:34:18.279Z,100618.50
2024-02-03T07:36:46.778Z,100622.20
2024-02-03T07:39:15.907Z,100622.94
2024-02-03T07:41:46.132Z,100613.64
2024-02-03T07:44:16.643Z,100610.77
2024-02-03T07:46:44.915Z,100594.11
2024-02-03T07:49:13.242Z,100604.73
2024-02-03T07:51:41.473Z,100596.42
2024-02-03T07:54:09.731Z,100610.02
2024-02-03T07:56:37.959Z,100599.56
2024-02-03T07:59:06.461Z,100603.13
2024-02-03T08:01:34.686Z,100608.04
2024-02-03T08:04:03.321Z,100608.48
2024-02-03T08:06:31.752Z,100608.96
2024-02-03T08:08:59.908Z,100607.90
2024-02-03T08:11:28.081Z,100606.70
2024-02-03T08:13:56.241Z,100607.91
2024-02-03T08:16:24.361Z,100605.47
2024-02-03T08:18:52.729Z,100603.56
2024-02-03T08:21:20.951Z,100600.36
2024-02-03T08:23:49.176Z,100606.36
2024-02-03T08:26:18.767Z,100601.80
2024-02-03T08:28:49.083Z,100605.31
2024-02-03T08:31:19.762Z,100596.61
2024-02-03T08:33:48.414Z,100592.59
2024-02-03T08:36:16.811Z,100582.58
2024-02-03T08:38:45.100Z,100582.02
2024-02-03T08:41:15.843Z,100587.86
2024-02-03T08:43:45.007Z,100586.55
2024-02-03T08:46:13.503Z,100591.54
2024-02-03T08:48:41.794Z,100587.92
2024-02-03T08:51:10.176Z,100589.92
2024-02-03T08:53:38.529Z,100596.15
2024-02-03T08:56:10.000Z,100601.39
2024-02-03T08:58:40.537Z,100594.63
2024-02-03T09:01:08.755Z,100594.26
2024-02-03T09:03:37.251Z,100597.25
2024-02-03T09:06:06.290Z,100598.55
2024-02-03T09:08:34.399Z,100602.64
2024-02-03T09:11:02.721Z,100602.98
2024-02-03T09:13:30.805Z,100603.98
2024-02-03T09:15:58.926Z,100607.07
2024-02-03T09:18:27.382Z,100593.96
2024-02-03T09:20:55.471Z,100602.94
2024-02-03T09:23:23.599Z,100610.16
2024-02-03T09:25:53.100Z,100604.84
2024-02-03T09:28:21.142Z,100609.09
2024-02-03T09:30:50.061Z,100610.24
2024-02-03T09:33:18.399Z,100611.72
2024-02-03T09:35:47.675Z,100612.70
2024-02-03T09:38:15.968Z,100615.23
2024-02-03T09:40:44.245Z,100619.70
2024-02-03T09:43:12.588Z,100620.30
2024-02-03T09:45:41.390Z,100628.10
2024-02-03T09:48:09.639Z,100631.85
2024-02-03T09:50:40.992Z,100622.51
2024-02-03T09:53:11.319Z,100625.63
2024-02-03T09:55:39.722Z,100626.38
2024-02-03T09:58:08.731Z,100632.71
2024-02-03T10:00:37.466Z,100638.31
2024-02-03T10:03:16.022Z,100642.80
2024-02-03T10:05:44.313Z,100635.96
2024-02-03T10:08:13.034Z,100634.59
2024-02-03T10:13:17.175Z,100632.63
2024-02-03T10:15:45.420Z,100633.44
2024-02-03T10:18:14.565Z,100643.63
2024-02-03T10:20:42.804Z,100647.20
2024-02-03T10:23:11.432Z,100646.92
2024-02-03T10:25:40.200Z,100645.46
2024-02-03T10:28:09.452Z,100636.43
2024-02-03T10:30:38.997Z,100642.33
2024-02-03T10:33:08.123Z,100643.65
2024-02-03T10:35:37.667Z,100640.11
2024-02-03T10:38:05.940Z,100642.17
2024-02-03T10:40:35.403Z,100644.94
2024-02-03T10:43:08.213Z,100648.58
2024-02-03T10:45:39.446Z,100642.10
2024-02-03T10:48:11.484Z,100644.70
2024-02-03T10:50:44.810Z,100646.64
2024-02-03T10:53:19.213Z,100653.52
2024-02-03T10:55:56.647Z,100639.05
2024-02-03T10:58:27.417Z,100649.17
2024-02-03T11:00:57.880Z,100642.95
2024-02-03T11:03:31.185Z,100646.27
2024-02-03T11:05:59.634Z,100639.30
2024-02-03T11:08:35.399Z,100633.02
2024-02-03T11:11:03.833Z,100635.07
2024-02-03T11:13:39.478Z,100632.34
2024-02-03T11:16:07.935Z,100638.95
2024-02-03T11:18:41.454Z,100637.91
2024-02-03T11:21:10.158Z,100642.53
2024-02-03T11:23:38.378Z,100640.40
2024-02-03T11:26:06.828Z,100643.92
2024-02-03T11:28:35.608Z,100644.95
2024-02-03T11:31:08.068Z,100639.41
2024-02-03T11:33:49.620Z,100643.14
2024-02-03T11:36:18.859Z,100640.44
2024-02-03T11:38:48.210Z,100644.77
2024-02-03T11:41:17.516Z,100646.14
2024-02-03T11:43:48.535Z,100650.37
2024-02-03T11:46:16.600Z,100652.02
2024-02-03T11:48:47.338Z,100656.06
2024-02-03T11:51:16.598Z,100656.83
2024-02-03T11:53:44.993Z,100660.33
2024-02-03T11:56:13.455Z,100663.23
2024-02-03T11:58:42.937Z,100666.27
2024-02-03T12:01:14.572Z,100662.80
2024-02-03T12:03:43.142Z,100669.68
2024-02-03T12:06:11.819Z,100670.25
2024-02-03T12:08:40.335Z,100670.19
2024-02-03T12:11:10.829Z,100664.02
2024-02-03T12:13:43.237Z,100666.05
2024-02-03T12:16:12.388Z,100666.90
2024-02-03T12:18:40.939Z,100664.38
2024-02-03T12:21:09.165Z,100669.41
2024-02-03T12:23:39.282Z,100661.84
2024-02-03T12:26:07.685Z,100662.30
2024-02-03T12:28:36.170Z,100661.42
2024-02-03T12:31:04.762Z,100662.48
2024-02-03T12:33:33.812Z,100658.09
2024-02-03T12:36:02.646Z,100653.86
2024-02-03T12:38:31.137Z,100653.17
2024-02-03T12:40:59.303Z,100654.89
2024-02-03T12:43:27.542Z,100652.39
2024-02-03T12:45:55.822Z,100652.52
2024-02-03T12:48:24.819Z,100646.41
2024-02-03T12:50:53.467Z,100650.48
2024-02-03T12:53:21.934Z,100654.09
2024-02-03T12:55:50.939Z,100656.95
2024-02-03T12:58:19.283Z,100657.48
2024-02-03T13:00:47.852Z,100652.48
2024-02-03T13:03:16.188Z,100653.82
2024-02-03T13:05:48.831Z,100646.35
2024-02-03T13:08:17.634Z,100642.16
2024-02-03T13:10:46.227Z,100643.63
2024-02-03T13:13:14.340Z,100644.44
2024-02-03T13:15:42.807Z,100636.02
2024-02-03T13:18:11.368Z,100642.25
2024-02-03T13:20:40.879Z,100639.69
2024-02-03T13:23:09.118Z,100648.80
2024-02-03T13:25:37.190Z,100649.48
2024-02-03T13:28:07.186Z,100642.63
2024-02-03T13:30:35.477Z,100651.92
2024-02-03T13:33:04.164Z,100656.80
2024-02-03T13:35:32.494Z,100657.23
2024-02-03T13:38:00.775Z,100663.33
2024-02-03T13:40:28.781Z,100663.30
2024-02-03T13:42:57.063Z,100659.80
2024-02-03T13:45:25.420Z,100664.03
2024-02-03T13:47:53.531Z,100663.11
2024-02-03T13:50:21.710Z,100670.21
2024-02-03T13:52:49.808Z,100664.84
2024-02-03T13:55:18.132Z,100663.98
2024-02-03T13:57:46.455Z,100665.85
2024-02-03T14:00:15.856Z,100663.35
2024-02-03T14:02:44.125Z,100664.31
2024-02-03T14:05:12.480Z,100661.58
2024-02-03T14:07:40.651Z,100662.16
2024-02-03T14:10:09.038Z,100663.55
2024-02-03T14:12:37.139Z,100663.05
2024-02-03T14:15:07.036Z,100661.57
2024-02-03T14:17:35.447Z,100663.77
2024-02-03T14:20:05.179Z,100655.98
2024-02-03T14:22:33.282Z,100656.66
2024-02-03T14:25:01.383Z,100659.50
2024-02-03T14:27:32.096Z,100657.31
2024-02-03T14:30:00.951Z,100659.73
2024-02-03T14:32:29.113Z,100666.73
2024-02-03T14:34:57.453Z,100663.02
2024-02-03T14:37:27.914Z,100664.40
2024-02-03T14:39:56.409Z,100667.64
2024-02-03T14:42:24.918Z,100667.22
2024-02-03T14:44:53.146Z,100669.64
2024-02-03T14:47:21.612Z,100675.71
2024-02-03T14:49:49.961Z,100678.46
2024-02-03T14:52:18.374Z,100677.83
2024-02-03T14:54:46.553Z,100680.73
2024-02-03T14:57:14.926Z,100682.77
2024-02-03T14:59:43.252Z,100687.16
2024-02-03T15:02:11.533Z,100690.32
2024-02-03T15:04:39.784Z,100695.31
2024-02-03T15:07:08.970Z,100698.90
2024-02-03T15:09:37.472Z,100708.62
2024-02-03T15:12:06.062Z,100716.73
2024-02-03T15:14:34.301Z,100718.73
2024-02-03T15:17:02.616Z,100711.77
2024-02-03T15:19:31.021Z,100720.14
2024-02-03T15:21:59.198Z,100729.45
2024-02-03T15:24:27.585Z,100729.13
2024-02-03T15:26:58.482Z,100731.26
2024-02-03T15:29:27.781Z,100728.25
2024-02-03T15:31:56.798Z,100732.32
2024-02-03T15:34:25.361Z,100736.80
2024-02-03T15:36:58.091Z,100737.78
2024-02-03T15:39:26.373Z,100737.12
2024-02-03T15:41:54.594Z,100744.37
2024-02-03T15:44:32.891Z,100738.78
2024-02-03T15:47:06.921Z,100745.16
2024-02-03T15:49:35.717Z,100750.06
2024-02-03T15:52:04.622Z,100755.67
2024-02-03T15:54:32.860Z,100749.65
2024-02-03T15:57:01.282Z,100758.68
2024-02-03T15:59:29.613Z,100762.77
2024-02-03T16:01:57.845Z,100754.77
2024-02-03T16:04:26.304Z,100757.41
2024-02-03T16:06:54.844Z,100757.08
2024-02-03T16:09:23.114Z,100760.34
2024-02-03T16:11:51.714Z,100760.47
2024-02-03T16:14:20.192Z,100762.37
2024-02-03T16:16:48.254Z,100767.19
2024-02-03T16:19:16.491Z,100773.80
2024-02-03T16:21:45.262Z,100767.97
2024-02-03T16:24:13.399Z,100776.13
2024-02-03T16:26:42.188Z,100773.08
2024-02-03T16:29:10.809Z,100766.08
2024-02-03T16:31:39.116Z,100764.96
2024-02-03T16:34:07.527Z,100754.98
2024-02-03T16:36:37.040Z,100756.80
2024-02-03T16:39:07.022Z,100761.55
2024-02-03T16:41:35.129Z,100760.52
2024-02-03T16:44:03.661Z,100762.10
2024-02-03T16:46:31.767Z,100757.61
2024-02-03T16:49:00.945Z,100754.15
2024-02-03T16:51:30.396Z,100749.08
2024-02-03T16:53:58.568Z,100752.61
2024-02-03T16:56:27.228Z,100751.94
2024-02-03T16:58:55.385Z,100758.40
2024-02-03T17:01:23.774Z,100762.44
2024-02-03T17:03:52.598Z,100759.44
2024-02-03T17:06:30.699Z,100756.94
2024-02-03T17:08:58.931Z,100754.84
2024-02-03T17:11:27.429Z,100768.33
2024-02-03T17:13:55.747Z,100773.95
2024-02-03T17:16:24.716Z,100775.35
2024-02-03T17:18:52.992Z,100782.46
2024-02-03T17:21:21.659Z,100779.31
2024-02-03T17:23:53.536Z,100777.53
2024-02-03T17:26:21.876Z,100778.44
2024-02-03T17:28:49.909Z,100777.79
2024-02-03T17:31:18.546Z,100780.02
2024-02-03T17:33:47.072Z,100773.77
2024-02-03T17:36:15.186Z,100775.52
2024-02-03T17:38:43.949Z,100781.73
2024-02-03T17:41:11.952Z,100785.21
2024-02-03T17:43:40.242Z,100785.27
2024-02-03T17:46:08.596Z,100784.65
2024-02-03T17:48:37.660Z,100785.09
2024-02-03T17:51:06.286Z,100786.34
2024-02-03T17:53:34.311Z,100789.88
2024-02-03T17:56:04.394Z,100792.13
2024-02-03T17:58:32.602Z,100789.94
2024-02-03T18:01:00.916Z,100793.77
2024-02-03T18:03:32.841Z,100790.46
2024-02-03T18:06:01.503Z,100793.71
2024-02-03T18:08:29.860Z,100793.58
2024-02-03T18:10:57.902Z,100795.88
2024-02-03T18:13:26.376Z,100793.18
2024-02-03T18:15:54.715Z,100791.77
2024-02-03T18:18:23.721Z,100786.52
2024-02-03T18:20:51.980Z,100788.08
2024-02-03T18:23:20.224Z,100783.12
2024-02-03T18:25:48.716Z,100779.33
2024-02-03T18:28:19.014Z,100783.14
2024-02-03T18:30:47.280Z,100782.29
2024-02-03T18:33:15.778Z,100782.57
2024-02-03T18:35:43.862Z,100784.95
2024-02-03T18:38:11.956Z,100784.14
2024-02-03T18:40:40.211Z,100782.79
2024-02-03T18:43:08.414Z,100777.48
2024-02-03T18:45:36.586Z,100771.67
2024-02-03T18:48:05.565Z,100773.60
2024-02-03T18:50:33.723Z,100763.46
2024-02-03T18:53:03.099Z,100761.98
2024-02-03T18:55:34.106Z,100754.59
2024-02-03T18:58:02.380Z,100756.87
2024-02-03T19:00:31.886Z,100754.83
2024-02-03T19:03:00.934Z,100760.63
2024-02-03T19:05:30.696Z,100764.20
2024-02-03T19:07:59.107Z,100768.75
2024-02-03T19:10:27.326Z,100765.88
2024-02-03T19:12:55.402Z,100769.40
2024-02-03T19:15:23.956Z,100768.97
2024-02-03T19:17:52.156Z,100773.73
2024-02-03T19:20:21.665Z,100774.02
2024-02-03T19:22:50.073Z,100781.87
2024-02-03T19:25:18.605Z,100783.06
2024-02-03T19:27:47.303Z,100780.23
2024-02-03T19:30:17.296Z,100781.32
2024-02-03T19:32:47.161Z,100783.02
2024-02-03T19:35:16.072Z,100779.55
2024-02-03T19:37:44.843Z,100783.97
2024-02-03T19:40:13.526Z,100784.33
2024-02-03T19:42:45.058Z,100783.34
2024-02-03T19:45:13.152Z,100779.08
2024-02-03T19:47:45.366Z,100775.49
2024-02-03T19:50:13.749Z,100782.27
2024-02-03T19:52:42.110Z,100782.40
2024-02-03T19:55:12.853Z,100781.55
2024-02-03T19:57:41.137Z,100783.61
2024-02-03T20:00:11.487Z,100781.11
2024-02-03T20:02:39.813Z,100782.54
2024-02-03T20:05:08.744Z,100781.96
2024-02-03T20:07:38.261Z,100779.77
2024-02-03T20:10:08.206Z,100773.66
2024-02-03T20:12:40.354Z,100765.83
2024-02-03T20:15:08.882Z,100773.02
2024-02-03T20:17:39.719Z,100768.40
2024-02-03T20:20:08.461Z,100769.85
2024-02-03T20:22:37.849Z,100766.34
2024-02-03T20:25:06.537Z,100763.23
2024-02-03T20:27:36.107Z,100759.00
2024-02-03T20:30:05.245Z,100757.93
2024-02-03T20:32:33.390Z,100758.70
2024-02-03T20:35:02.256Z,100758.80
2024-02-03T20:37:31.229Z,100760.52
2024-02-03T20:39:59.394Z,100756.60
2024-02-03T20:42:28.539Z,100757.90
2024-02-03T20:44:56.607Z,100764.80
2024-02-03T20:47:24.580Z,100768.79
2024-02-03T20:49:52.771Z,100768.59
2024-02-03T20:52:21.054Z,100773.52
2024-02-03T20:54:49.928Z,100779.45
2024-02-03T20:57:18.885Z,100780.64
2024-02-03T20:59:47.015Z,100786.21
2024-02-03T21:02:15.797Z,100780.05
2024-02-03T21:04:43.909Z,100777.38
2024-02-03T21:07:16.620Z,100784.02
2024-02-03T21:09:44.919Z,100782.50
2024-02-03T21:12:13.025Z,100787.79
2024-02-03T21:14:41.488Z,100788.81
2024-02-03T21:17:09.589Z,100788.97
2024-02-03T21:19:38.734Z,100780.79
2024-02-03T21:22:07.015Z,100779.83
2024-02-03T21:24:36.570Z,100777.95
2024-02-03T21:27:07.712Z,100773.41
2024-02-03T21:29:35.730Z,100774.73
2024-02-03T21:32:04.613Z,100775.89
2024-02-03T21:34:32.776Z,100765.84
2024-02-03T21:37:01.598Z,100767.83
2024-02-03T21:39:29.812Z,100764.47
2024-02-03T21:41:57.778Z,100768.23
2024-02-03T21:44:25.775Z,100769.52
2024-02-03T21:46:55.937Z,100771.06
2024-02-03T21:49:25.288Z,100769.14
2024-02-03T21:51:53.425Z,100763.27
2024-02-03T21:54:21.904Z,100760.80
2024-02-03T21:56:50.058Z,100759.51
2024-02-03T21:59:18.252Z,100757.80
2024-02-03T22:01:46.487Z,100758.02
2024-02-03T22:04:18.082Z,100753.55
2024-02-03T22:06:47.657Z,100747.89
2024-02-03T22:09:18.282Z,100736.81
2024-02-03T22:11:46.374Z,100735.14
2024-02-03T22:14:14.424Z,100732.51
2024-02-03T22:16:44.384Z,100730.17
2024-02-03T22:19:12.811Z,100729.89
2024-02-03T22:21:41.221Z,100726.00
2024-02-03T22:24:09.349Z,100726.29
2024-02-03T22:26:39.488Z,100728.65
2024-02-03T22:29:08.012Z,100729.33
2024-02-03T22:31:35.950Z,100734.50
2024-02-03T22:34:04.015Z,100731.99
2024-02-03T22:36:32.179Z,100731.48
2024-02-03T22:39:00.157Z,100728.50
2024-02-03T22:41:29.074Z,100726.95
2024-02-03T22:43:57.409Z,100727.48
2024-02-03T22:46:25.507Z,100729.16
2024-02-03T22:48:53.852Z,100723.05
2024-02-03T22:51:22.007Z,100728.02
2024-02-03T22:53:50.040Z,100728.52
2024-02-03T22:56:18.205Z,100727.77
2024-02-03T22:58:46.558Z,100734.70
2024-02-03T23:01:14.800Z,100731.18
2024-02-03T23:03:46.283Z,100724.59
2024-02-03T23:06:14.460Z,100718.92
2024-02-03T23:08:43.414Z,100713.34
2024-02-03T23:11:13.285Z,100707.31
2024-02-03T23:13:42.340Z,100704.23
2024-02-03T23:16:10.568Z,100698.17
2024-02-03T23:18:39.868Z,100697.09
2024-02-03T23:21:09.279Z,100700.70
2024-02-03T23:23:37.440Z,100700.92
2024-02-03T23:26:05.641Z,100700.70
2024-02-03T23:28:35.228Z,100699.98
2024-02-03T23:31:04.269Z,100698.87
2024-02-03T23:33:37.220Z,100695.19
2024-02-03T23:36:06.415Z,100693.75
2024-02-03T23:38:34.872Z,100699.23
2024-02-03T23:41:03.179Z,100689.52
2024-02-03T23:43:31.239Z,100698.58
2024-02-03T23:45:59.314Z,100696.69
2024-02-03T23:48:28.024Z,100703.46
2024-02-03T23:50:56.102Z,100698.77
2024-02-03T23:53:26.265Z,100699.70
2024-02-03T23:55:54.434Z,100701.82
2024-02-03T23:58:23.470Z,100696.77
